Time;durP1;ratioP1;P1;durP2;ratioP2;P2;SDS_P1;SDS_P2;PMS_P1;PMS_P2;Temp;Humidity;BMP_temperature;BMP_pressure;BME280_temperature;BME280_humidity;BME280_pressure;Samples;Min_cycle;Max_cycle;Signal;HPM_P1;HPM_P2
2021/11/06 00:00:17;;;;;;;9.53;8.53;;;7.60;1.00;;;;;;4865399;29;20207;-84
2021/11/06 00:02:43;;;;;;;9.87;8.97;;;7.60;1.00;;;;;;4875068;29;20225;-84
2021/11/06 00:05:09;;;;;;;9.67;8.77;;;;;;;;;;4866415;29;20205;-84
2021/11/06 00:07:34;;;;;;;9.37;8.17;;;7.70;1.00;;;;;;4860888;29;20216;-84
2021/11/06 00:10:00;;;;;;;9.37;8.53;;;7.70;1.00;;;;;;4863801;29;20197;-84
2021/11/06 00:12:26;;;;;;;9.80;7.97;;;;;;;;;;4866628;29;20189;-84
2021/11/06 00:14:52;;;;;;;8.87;7.97;;;7.70;1.00;;;;;;4867144;29;20193;-84
2021/11/06 00:38:09;;;;;;;25.67;11.47;;;;;;;;;;5850208;23;22078;-76
2021/11/06 00:40:35;;;;;;;11.20;8.80;;;7.60;1.00;;;;;;4894914;29;20663;-76
2021/11/06 00:43:01;;;;;;;10.47;8.17;;;7.40;1.00;;;;;;4894756;29;20266;-76
2021/11/06 00:45:26;;;;;;;9.73;8.33;;;7.30;1.00;;;;;;4885751;29;20699;-76
2021/11/06 00:47:52;;;;;;;9.53;8.53;;;7.30;1.00;;;;;;4877880;29;21187;-77
2021/11/06 00:50:18;;;;;;;9.27;8.37;;;7.20;1.00;;;;;;4874385;29;20196;-76
2021/11/06 00:52:46;;;;;;;9.20;8.30;;;7.30;1.00;;;;;;4867789;29;20215;-77
2021/11/06 00:55:13;;;;;;;10.97;8.47;;;7.50;1.00;;;;;;4874829;29;20203;-77
2021/11/06 00:57:39;;;;;;;9.43;8.53;;;7.20;1.00;;;;;;4875083;29;20204;-78
2021/11/06 01:00:07;;;;;;;9.83;8.83;;;7.10;1.00;;;;;;4878234;29;20609;-76
2021/11/06 01:02:33;;;;;;;9.87;8.87;;;7.20;1.00;;;;;;4878235;29;20184;-77
2021/11/06 01:04:58;;;;;;;10.67;8.67;;;7.10;1.00;;;;;;4872610;29;20199;-78
2021/11/06 01:07:24;;;;;;;11.03;9.93;;;7.20;1.00;;;;;;4870054;29;20224;-78
2021/11/06 01:09:50;;;;;;;9.60;8.67;;;7.20;1.00;;;;;;4873393;29;20203;-77
2021/11/06 01:12:15;;;;;;;10.40;9.40;;;7.20;1.00;;;;;;4873385;29;20629;-77
2021/11/06 01:14:41;;;;;;;10.47;9.20;;;7.20;1.00;;;;;;4869267;29;20653;-77
2021/11/06 01:17:06;;;;;;;10.07;8.70;;;7.10;1.00;;;;;;4874215;29;20283;-77
2021/11/06 01:19:32;;;;;;;10.37;9.00;;;7.10;1.00;;;;;;4879102;29;20581;-77
2021/11/06 01:21:58;;;;;;;14.63;9.70;;;7.10;1.00;;;;;;4870643;29;20180;-77
2021/11/06 01:24:23;;;;;;;11.07;8.87;;;7.10;1.00;;;;;;4872668;29;20319;-77
2021/11/06 01:26:49;;;;;;;13.40;9.63;;;8.10;1.00;;;;;;4872199;29;20189;-77
2021/11/06 01:29:14;;;;;;;10.00;9.00;;;7.10;1.00;;;;;;4877763;29;20218;-77
2021/11/06 01:31:40;;;;;;;11.00;9.90;;;7.10;1.00;;;;;;4873770;29;20642;-77
2021/11/06 01:34:06;;;;;;;14.20;10.23;;;7.00;1.00;;;;;;4869425;29;20275;-76
2021/11/06 01:36:31;;;;;;;10.80;9.43;;;7.40;1.00;;;;;;4868171;29;20291;-76
2021/11/06 01:38:57;;;;;;;12.00;10.00;;;7.00;1.00;;;;;;4879153;29;20204;-76
2021/11/06 01:41:23;;;;;;;11.03;9.37;;;7.00;1.00;;;;;;4874508;29;20629;-76
2021/11/06 01:43:49;;;;;;;10.60;9.57;;;;;;;;;;4875794;29;20391;-76
2021/11/06 01:46:15;;;;;;;9.77;8.73;;;7.00;1.00;;;;;;4879546;29;20672;-75
2021/11/06 01:48:41;;;;;;;12.17;10.13;;;7.10;1.00;;;;;;4875340;29;20209;-76
2021/11/06 01:51:06;;;;;;;11.40;10.07;;;7.10;1.00;;;;;;4871971;29;20212;-76
2021/11/06 01:53:33;;;;;;;10.07;9.10;;;7.10;1.00;;;;;;4876413;29;20176;-77
2021/11/06 01:55:59;;;;;;;16.10;9.10;;;7.10;1.00;;;;;;4871293;29;20195;-79
2021/11/06 01:58:27;;;;;;;10.37;9.30;;;7.10;1.00;;;;;;4870969;29;20542;-78
2021/11/06 02:00:53;;;;;;;10.70;9.60;;;7.20;1.00;;;;;;4878566;29;20192;-77
2021/11/06 02:03:19;;;;;;;11.13;9.47;;;7.10;1.00;;;;;;4869266;29;20189;-77
2021/11/06 02:05:45;;;;;;;10.27;9.20;;;7.10;1.00;;;;;;4880746;29;20187;-76
2021/11/06 02:08:16;;;;;;;11.43;9.80;;;7.00;1.00;;;;;;4883231;29;20216;-77
2021/11/06 02:10:42;;;;;;;12.67;9.90;;;6.90;1.00;;;;;;4888860;29;20196;-77
2021/11/06 02:13:09;;;;;;;10.60;9.50;;;7.00;1.00;;;;;;4888000;29;20275;-77
2021/11/06 02:15:35;;;;;;;13.13;9.43;;;7.00;1.00;;;;;;4894824;29;20184;-77
2021/11/06 02:18:01;;;;;;;11.93;9.50;;;7.00;1.00;;;;;;4893943;29;20653;-76
2021/11/06 02:20:26;;;;;;;11.73;10.03;;;7.00;1.00;;;;;;4897321;29;20181;-77
2021/11/06 02:22:52;;;;;;;10.90;9.17;;;6.90;1.00;;;;;;4896308;29;20200;-79
2021/11/06 02:25:19;;;;;;;10.40;9.40;;;7.20;1.00;;;;;;4884212;29;20535;-76
2021/11/06 02:27:45;;;;;;;11.77;10.53;;;7.20;1.00;;;;;;4882131;29;20219;-76
2021/11/06 02:30:12;;;;;;;10.70;9.60;;;7.10;1.00;;;;;;4885137;29;20203;-77
2021/11/06 02:32:38;;;;;;;11.17;9.70;;;7.10;1.00;;;;;;4877273;29;20540;-77
2021/11/06 02:35:05;;;;;;;9.80;8.80;;;7.20;1.00;;;;;;4879828;29;20193;-76
2021/11/06 02:37:31;;;;;;;9.20;8.40;;;7.10;1.00;;;;;;4879212;29;20188;-77
2021/11/06 02:39:57;;;;;;;10.57;9.57;;;7.10;1.00;;;;;;4883857;29;20255;-77
2021/11/06 02:42:22;;;;;;;10.63;9.53;;;7.00;1.00;;;;;;4876808;29;20185;-77
2021/11/06 02:44:48;;;;;;;10.27;9.10;;;6.90;1.00;;;;;;4877988;29;20205;-77
2021/11/06 02:47:14;;;;;;;11.77;9.20;;;6.90;1.00;;;;;;4875205;29;20189;-77
2021/11/06 02:49:40;;;;;;;9.97;8.90;;;6.90;1.00;;;;;;4873488;29;20262;-77
2021/11/06 02:52:07;;;;;;;9.90;8.93;;;6.90;1.00;;;;;;4878806;29;20221;-78
2021/11/06 02:54:32;;;;;;;11.23;9.80;;;6.70;1.00;;;;;;4877311;29;20202;-77
2021/11/06 02:56:58;;;;;;;11.13;9.40;;;6.70;1.00;;;;;;4875778;29;20184;-77
2021/11/06 02:59:24;;;;;;;10.30;9.23;;;6.70;1.00;;;;;;4873739;29;20185;-77
2021/11/06 03:01:50;;;;;;;10.60;9.50;;;5.20;1.00;;;;;;4876521;29;20193;-77
2021/11/06 03:04:16;;;;;;;10.70;9.60;;;6.60;1.00;;;;;;4876497;29;20187;-77
2021/11/06 03:06:42;;;;;;;9.70;8.80;;;6.60;1.00;;;;;;4877731;29;20684;-77
2021/11/06 03:09:08;;;;;;;11.77;9.60;;;6.50;1.00;;;;;;4884428;29;20231;-77
2021/11/06 03:11:36;;;;;;;10.47;9.33;;;6.40;1.00;;;;;;4877554;29;20244;-78
2021/11/06 03:14:06;;;;;;;11.07;10.07;;;6.40;1.00;;;;;;4873182;29;20187;-80
2021/11/06 03:16:31;;;;;;;10.63;9.57;;;6.40;1.00;;;;;;4872916;29;20203;-77
2021/11/06 03:18:57;;;;;;;10.73;9.60;;;6.30;1.00;;;;;;4868969;29;20271;-77
2021/11/06 03:21:27;;;;;;;10.60;9.63;;;6.70;1.00;;;;;;4876949;29;20191;-77
2021/11/06 03:23:53;;;;;;;11.30;10.23;;;6.30;1.00;;;;;;4877325;29;20201;-77
2021/11/06 03:26:18;;;;;;;10.60;9.50;;;6.30;1.00;;;;;;4869801;29;20625;-77
2021/11/06 03:28:44;;;;;;;10.93;9.93;;;6.20;1.00;;;;;;4875867;29;20740;-77
2021/11/06 03:31:09;;;;;;;13.00;10.47;;;6.20;1.00;;;;;;4879633;29;20228;-77
2021/11/06 03:33:35;;;;;;;10.43;9.23;;;6.10;1.00;;;;;;4877645;29;20195;-77
2021/11/06 03:36:00;;;;;;;10.63;9.63;;;6.10;1.00;;;;;;4873998;29;20196;-77
2021/11/06 03:38:26;;;;;;;11.37;10.03;;;6.00;1.00;;;;;;4874210;29;20296;-77
2021/11/06 03:40:52;;;;;;;10.87;9.60;;;6.00;1.00;;;;;;4868924;29;20208;-77
2021/11/06 03:43:18;;;;;;;12.27;9.93;;;5.90;1.00;;;;;;4871899;29;20196;-77
2021/11/06 03:45:44;;;;;;;13.33;11.23;;;5.90;1.00;;;;;;4878560;29;20652;-78
2021/11/06 03:48:10;;;;;;;11.80;9.73;;;5.90;1.00;;;;;;4870821;29;20215;-77
2021/11/06 03:50:36;;;;;;;14.67;10.10;;;5.80;1.00;;;;;;4874254;29;20302;-77
2021/11/06 03:53:01;;;;;;;12.20;10.90;;;6.10;1.00;;;;;;4874856;29;20200;-77
2021/11/06 03:55:27;;;;;;;10.53;9.53;;;6.20;1.00;;;;;;4878434;29;20192;-79
2021/11/06 03:57:53;;;;;;;16.63;10.57;;;6.00;1.00;;;;;;4867455;29;20204;-77
2021/11/06 04:00:20;;;;;;;10.87;9.77;;;6.00;1.00;;;;;;4876883;29;20196;-76
2021/11/06 04:02:46;;;;;;;11.23;9.57;;;6.00;1.00;;;;;;4876639;29;20194;-77
2021/11/06 04:05:13;;;;;;;10.07;9.13;;;5.90;1.00;;;;;;4869408;29;20204;-77
2021/11/06 04:07:39;;;;;;;9.70;8.57;;;;;;;;;;4867883;29;20212;-77
2021/11/06 04:10:06;;;;;;;10.33;9.23;;;5.90;1.00;;;;;;4875182;29;20474;-77
2021/11/06 04:12:33;;;;;;;11.07;9.43;;;5.80;1.00;;;;;;4867760;29;20234;-80
2021/11/06 04:14:59;;;;;;;10.83;9.73;;;5.70;1.00;;;;;;4871679;29;20212;-76
2021/11/06 04:17:24;;;;;;;10.73;9.67;;;5.70;1.00;;;;;;4873811;29;20380;-77
2021/11/06 04:19:50;;;;;;;11.43;10.23;;;5.70;1.00;;;;;;4888240;29;20247;-77
2021/11/06 04:22:16;;;;;;;10.23;9.23;;;5.70;1.00;;;;;;4875341;29;20192;-78
2021/11/06 04:24:42;;;;;;;11.00;9.27;;;5.70;1.00;;;;;;4871909;29;20195;-77
2021/11/06 04:27:08;;;;;;;12.70;9.80;;;5.60;1.00;;;;;;4870589;29;20206;-77
2021/11/06 04:29:35;;;;;;;10.47;9.47;;;5.60;1.00;;;;;;4870510;29;20204;-77
2021/11/06 04:32:03;;;;;;;9.50;8.50;;;5.50;1.00;;;;;;4867953;29;20212;-79
2021/11/06 04:34:29;;;;;;;10.63;8.53;;;5.50;1.00;;;;;;4872944;29;20192;-77
2021/11/06 04:36:54;;;;;;;12.33;9.17;;;5.40;1.00;;;;;;4870653;29;20279;-77
2021/11/06 04:39:20;;;;;;;11.27;10.17;;;5.40;1.00;;;;;;4871555;29;20288;-77
2021/11/06 04:41:46;;;;;;;10.57;9.53;;;5.40;1.00;;;;;;4873825;29;20192;-77
2021/11/06 04:44:11;;;;;;;10.73;9.63;;;5.30;1.00;;;;;;4868695;29;20206;-77
2021/11/06 04:46:37;;;;;;;9.83;8.93;;;5.20;1.00;;;;;;4875379;29;20230;-77
2021/11/06 04:49:03;;;;;;;11.13;10.03;;;5.20;1.00;;;;;;4871323;29;20219;-77
2021/11/06 04:51:29;;;;;;;15.13;9.37;;;5.10;1.00;;;;;;4872435;29;20243;-77
2021/11/06 04:53:55;;;;;;;11.43;10.23;;;5.10;1.00;;;;;;4875657;29;20187;-76
2021/11/06 04:56:21;;;;;;;10.97;9.87;;;5.10;1.00;;;;;;4874265;29;20212;-77
2021/11/06 04:58:46;;;;;;;10.47;9.40;;;5.00;1.00;;;;;;4871212;29;20196;-77
2021/11/06 05:01:12;;;;;;;10.00;9.10;;;5.00;1.00;;;;;;4868872;29;20193;-77
2021/11/06 05:03:37;;;;;;;11.87;10.27;;;6.70;1.00;;;;;;4875002;29;20664;-77
2021/11/06 05:06:03;;;;;;;10.53;9.17;;;4.90;1.00;;;;;;4867625;29;20235;-77
2021/11/06 05:08:29;;;;;;;11.43;10.23;;;4.90;1.00;;;;;;4871607;29;20303;-78
2021/11/06 05:10:54;;;;;;;10.53;9.53;;;4.80;1.00;;;;;;4888019;29;20241;-77
2021/11/06 05:13:20;;;;;;;12.50;11.07;;;4.90;1.00;;;;;;4863518;29;20780;-77
2021/11/06 05:15:45;;;;;;;11.80;10.60;;;4.80;1.00;;;;;;4875544;29;20191;-77
2021/11/06 05:18:13;;;;;;;11.77;10.53;;;5.30;1.00;;;;;;4876040;29;20201;-77
2021/11/06 05:20:41;;;;;;;15.00;10.27;;;4.80;1.00;;;;;;4872448;29;20198;-77
2021/11/06 05:23:07;;;;;;;10.77;9.67;;;4.80;1.00;;;;;;4874002;29;20202;-77
2021/11/06 05:25:32;;;;;;;10.27;9.27;;;4.70;1.00;;;;;;4872640;29;20284;-77
2021/11/06 05:27:58;;;;;;;12.67;10.77;;;4.70;1.00;;;;;;4878345;29;20213;-76
2021/11/06 05:30:24;;;;;;;11.90;10.03;;;4.70;1.00;;;;;;4875969;29;20186;-77
2021/11/06 05:32:49;;;;;;;11.23;9.73;;;6.20;1.00;;;;;;4876616;29;20590;-76
2021/11/06 05:35:15;;;;;;;12.87;9.60;;;4.60;1.00;;;;;;4881240;29;20223;-76
2021/11/06 05:37:41;;;;;;;10.97;9.93;;;4.60;1.00;;;;;;4875484;29;20385;-76
2021/11/06 05:40:09;;;;;;;12.77;10.17;;;4.50;1.00;;;;;;4880476;29;20240;-77
2021/11/06 05:42:35;;;;;;;11.13;9.40;;;4.50;1.00;;;;;;4879373;29;20186;-76
2021/11/06 05:45:04;;;;;;;10.90;9.80;;;4.50;1.00;;;;;;4877125;29;20209;-76
2021/11/06 05:47:29;;;;;;;14.60;10.10;;;4.50;1.00;;;;;;4872014;29;20197;-77
2021/11/06 05:49:55;;;;;;;9.60;8.70;;;4.50;1.00;;;;;;4880057;29;20197;-77
2021/11/06 05:52:21;;;;;;;10.07;8.43;;;5.60;1.00;;;;;;4872785;29;20188;-77
2021/11/06 05:54:46;;;;;;;9.93;7.90;;;4.40;1.00;;;;;;4867170;29;20216;-76
2021/11/06 05:57:12;;;;;;;8.63;7.83;;;4.40;1.00;;;;;;4876518;29;20193;-77
2021/11/06 05:59:38;;;;;;;8.77;7.57;;;4.40;1.00;;;;;;4872809;29;20589;-77
2021/11/06 06:02:04;;;;;;;8.13;7.33;;;4.40;1.00;;;;;;4872888;29;20208;-77
2021/11/06 06:04:29;;;;;;;8.43;7.57;;;4.50;1.00;;;;;;4871351;29;20230;-77
2021/11/06 06:06:55;;;;;;;9.87;7.83;;;4.50;1.00;;;;;;4878325;29;20657;-76
2021/11/06 06:09:21;;;;;;;9.73;8.40;;;4.50;1.00;;;;;;4873008;29;20214;-75
2021/11/06 06:11:47;;;;;;;8.43;7.63;;;4.60;1.00;;;;;;4874025;29;20222;-76
2021/11/06 06:14:12;;;;;;;10.73;8.60;;;4.60;1.00;;;;;;4885414;29;20201;-76
2021/11/06 06:16:38;;;;;;;8.37;7.13;;;4.70;1.00;;;;;;4884184;29;20196;-76
2021/11/06 06:19:04;;;;;;;9.13;7.23;;;4.80;1.00;;;;;;4873855;29;20190;-76
2021/11/06 06:21:30;;;;;;;8.00;7.20;;;4.80;1.00;;;;;;4876387;29;20200;-75
2021/11/06 06:23:57;;;;;;;7.67;6.97;;;6.00;1.00;;;;;;4872880;29;20197;-76
2021/11/06 06:26:23;;;;;;;8.37;7.47;;;4.90;1.00;;;;;;4874334;29;20205;-76
2021/11/06 06:28:48;;;;;;;9.23;8.30;;;4.90;1.00;;;;;;4870483;29;20216;-76
2021/11/06 06:31:15;;;;;;;13.03;9.07;;;5.00;1.00;;;;;;4871416;29;20206;-76
2021/11/06 06:33:40;;;;;;;9.73;8.67;;;5.00;1.00;;;;;;4875856;29;20639;-76
2021/11/06 06:36:06;;;;;;;10.17;8.50;;;5.00;1.00;;;;;;4876367;29;20197;-77
2021/11/06 06:38:33;;;;;;;10.17;9.17;;;5.10;1.00;;;;;;4873632;29;20297;-76
2021/11/06 06:40:59;;;;;;;14.37;11.80;;;5.20;1.00;;;;;;4874749;29;20211;-78
2021/11/06 06:43:25;;;;;;;13.27;11.87;;;5.30;1.00;;;;;;4870088;29;20189;-76
2021/11/06 06:45:51;;;;;;;14.90;12.23;;;5.30;1.00;;;;;;4878776;29;20216;-76
2021/11/06 06:48:17;;;;;;;17.63;13.23;;;5.30;1.00;;;;;;4877713;29;20265;-77
2021/11/06 06:50:46;;;;;;;15.73;11.97;;;5.30;1.00;;;;;;4874517;29;20190;-76
2021/11/06 06:53:13;;;;;;;21.40;14.43;;;5.40;1.00;;;;;;4873831;29;20219;-76
2021/11/06 06:55:39;;;;;;;21.13;12.33;;;5.50;1.00;;;;;;4881362;29;20212;-77
2021/11/06 06:58:04;;;;;;;22.17;15.07;;;5.50;1.00;;;;;;4887409;29;20202;-76
2021/11/06 07:00:30;;;;;;;15.20;11.20;;;5.60;1.00;;;;;;4888672;29;20293;-76
2021/11/06 07:02:56;;;;;;;38.57;12.33;;;5.60;1.00;;;;;;4881280;29;20244;-75
2021/11/06 07:05:21;;;;;;;22.80;11.17;;;5.50;1.00;;;;;;4888246;29;20186;-80
2021/11/06 07:07:47;;;;;;;27.80;11.50;;;5.60;1.00;;;;;;4904021;29;20229;-78
2021/11/06 07:10:12;;;;;;;31.50;13.60;;;5.60;1.00;;;;;;4899282;29;20236;-79
2021/11/06 07:12:41;;;;;;;25.03;12.67;;;5.60;1.00;;;;;;4888145;29;20688;-76
2021/11/06 07:15:07;;;;;;;24.03;11.77;;;5.60;1.00;;;;;;4882317;29;20210;-76
2021/11/06 07:17:33;;;;;;;22.90;11.23;;;5.60;1.00;;;;;;4879083;29;20636;-76
2021/11/06 07:19:58;;;;;;;21.40;13.00;;;5.60;1.00;;;;;;4880726;29;20278;-76
2021/11/06 07:22:24;;;;;;;22.53;12.60;;;5.60;1.00;;;;;;4880099;29;20197;-76
2021/11/06 07:24:50;;;;;;;16.47;11.57;;;5.70;1.00;;;;;;4872907;29;20327;-75
2021/11/06 07:27:16;;;;;;;15.77;11.83;;;5.80;1.00;;;;;;4873730;29;20192;-75
2021/11/06 07:29:42;;;;;;;25.73;13.00;;;5.80;1.00;;;;;;4882265;29;20558;-75
2021/11/06 07:32:08;;;;;;;16.80;11.27;;;5.90;1.00;;;;;;4870417;29;20239;-76
2021/11/06 07:34:34;;;;;;;13.70;11.07;;;6.00;1.00;;;;;;4870351;29;20200;-76
2021/11/06 07:36:59;;;;;;;20.67;11.33;;;6.00;1.00;;;;;;4886581;29;20187;-76
2021/11/06 07:39:26;;;;;;;19.20;11.30;;;7.00;1.00;;;;;;4871874;29;20978;-76
2021/11/06 07:41:53;;;;;;;20.37;12.57;;;6.10;1.00;;;;;;4872843;29;20270;-76
2021/11/06 07:44:19;;;;;;;27.37;12.23;;;6.10;1.00;;;;;;4876359;29;20247;-73
2021/11/06 07:46:45;;;;;;;16.00;11.60;;;6.00;1.00;;;;;;4875672;29;20335;-73
2021/11/06 07:49:10;;;;;;;19.27;11.40;;;6.10;1.00;;;;;;4872477;29;20603;-74
2021/11/06 07:51:36;;;;;;;20.97;12.13;;;6.00;1.00;;;;;;4872223;29;20275;-73
2021/11/06 07:54:02;;;;;;;16.03;11.93;;;6.00;1.00;;;;;;4875635;29;20294;-73
2021/11/06 07:56:28;;;;;;;16.63;13.00;;;6.10;1.00;;;;;;4866947;29;20264;-72
2021/11/06 07:58:53;;;;;;;16.17;12.43;;;6.10;1.00;;;;;;4868103;29;20200;-69
2021/11/06 08:01:20;;;;;;;16.43;12.13;;;6.20;1.00;;;;;;4868150;29;20204;-70
2021/11/06 08:03:46;;;;;;;25.47;12.63;;;6.30;1.00;;;;;;4868012;29;20193;-69
2021/11/06 08:06:12;;;;;;;18.57;12.20;;;6.40;1.00;;;;;;4866052;29;20196;-69
2021/11/06 08:08:38;;;;;;;19.43;13.20;;;6.40;1.00;;;;;;4883194;29;20223;-67
2021/11/06 08:11:04;;;;;;;25.63;12.77;;;6.40;1.00;;;;;;4865937;29;20205;-72
2021/11/06 08:13:33;;;;;;;25.97;14.03;;;6.40;1.00;;;;;;4869760;29;20195;-73
2021/11/06 08:15:59;;;;;;;13.40;12.00;;;6.50;1.00;;;;;;4872880;29;20201;-71
2021/11/06 08:18:26;;;;;;;16.80;12.03;;;6.50;1.00;;;;;;4868345;29;20209;-72
2021/11/06 08:20:54;;;;;;;12.77;11.47;;;6.50;1.00;;;;;;4887973;29;20556;-72
2021/11/06 08:23:21;;;;;;;16.83;12.13;;;6.50;1.00;;;;;;4865420;29;20230;-71
2021/11/06 08:25:47;;;;;;;16.23;12.50;;;6.40;1.00;;;;;;4866744;29;20240;-72
2021/11/06 08:28:14;;;;;;;19.60;12.80;;;6.50;1.00;;;;;;4866317;29;20220;-72
2021/11/06 08:30:40;;;;;;;21.23;13.50;;;6.50;1.00;;;;;;4868389;29;20726;-72
2021/11/06 08:33:06;;;;;;;25.67;13.50;;;6.30;1.00;;;;;;4868732;29;20200;-75
2021/11/06 08:35:31;;;;;;;25.67;14.80;;;6.30;1.00;;;;;;4868666;29;20192;-72
2021/11/06 08:37:58;;;;;;;15.87;12.57;;;6.30;1.00;;;;;;4871299;29;20196;-75
2021/11/06 08:40:25;;;;;;;14.43;12.93;;;6.30;1.00;;;;;;4869942;29;20200;-73
2021/11/06 08:42:52;;;;;;;17.77;13.63;;;6.50;1.00;;;;;;4873057;29;20637;-70
2021/11/06 08:45:18;;;;;;;15.20;13.63;;;6.50;1.00;;;;;;4869657;29;20212;-73
2021/11/06 08:47:44;;;;;;;14.63;13.13;;;6.50;1.00;;;;;;4868594;29;20219;-72
2021/11/06 08:50:14;;;;;;;15.13;13.53;;;6.60;1.00;;;;;;4864725;29;20273;-73
2021/11/06 08:52:41;;;;;;;14.93;13.23;;;6.80;1.00;;;;;;4863739;29;20188;-76
2021/11/06 08:55:07;;;;;;;16.27;14.03;;;6.80;1.00;;;;;;4865860;29;20453;-72
2021/11/06 08:57:34;;;;;;;18.90;14.47;;;6.70;1.00;;;;;;4865858;29;20726;-73
2021/11/06 09:00:06;;;;;;;16.67;14.27;;;7.30;1.00;;;;;;4866814;29;20601;-72
2021/11/06 09:02:33;;;;;;;15.77;13.30;;;6.50;1.00;;;;;;4864567;29;20680;-70
2021/11/06 09:04:58;;;;;;;17.80;12.43;;;6.70;1.00;;;;;;4865109;29;20177;-69
2021/11/06 09:07:24;;;;;;;16.30;13.60;;;6.60;1.00;;;;;;4864078;29;20421;-69
2021/11/06 09:09:50;;;;;;;15.60;13.87;;;6.60;1.00;;;;;;4866268;29;20661;-69
2021/11/06 09:12:15;;;;;;;15.23;12.57;;;6.60;1.00;;;;;;4864962;29;20196;-68
2021/11/06 09:14:41;;;;;;;15.97;12.93;;;6.60;1.00;;;;;;4862626;29;20199;-69
2021/11/06 09:17:06;;;;;;;14.67;12.40;;;6.80;1.00;;;;;;4861796;29;20193;-70
2021/11/06 09:19:32;;;;;;;14.40;13.00;;;6.90;1.00;;;;;;4863816;29;20208;-71
2021/11/06 09:21:58;;;;;;;16.93;13.73;;;7.10;1.00;;;;;;4859546;29;20623;-69
2021/11/06 09:24:23;;;;;;;15.93;14.27;;;7.30;1.00;;;;;;4863209;29;20199;-69
2021/11/06 09:26:49;;;;;;;20.50;14.30;;;7.30;1.00;;;;;;4860862;29;20531;-68
2021/11/06 09:29:16;;;;;;;15.27;13.67;;;7.50;1.00;;;;;;4866038;29;20741;-68
2021/11/06 09:31:42;;;;;;;16.47;13.07;;;7.50;1.00;;;;;;4864419;29;20186;-68
2021/11/06 09:34:10;;;;;;;14.33;11.90;;;7.60;1.00;;;;;;4866211;29;20696;-69
2021/11/06 09:36:36;;;;;;;12.20;11.00;;;7.50;1.00;;;;;;4861734;29;20197;-68
2021/11/06 09:39:07;;;;;;;13.57;12.27;;;7.10;1.00;;;;;;4874134;29;20200;-68
2021/11/06 09:41:33;;;;;;;13.77;12.27;;;7.10;1.00;;;;;;4869732;29;20190;-69
2021/11/06 09:44:00;;;;;;;11.43;10.33;;;7.20;1.00;;;;;;4860850;29;20962;-69
2021/11/06 09:46:25;;;;;;;15.27;12.30;;;7.10;1.00;;;;;;4862507;29;20281;-69
2021/11/06 09:48:51;;;;;;;12.63;11.43;;;7.10;1.00;;;;;;4868778;29;20221;-68
2021/11/06 09:51:19;;;;;;;12.67;11.43;;;7.10;1.00;;;;;;4863484;29;20331;-68
2021/11/06 09:53:47;;;;;;;13.00;11.57;;;7.20;1.00;;;;;;4860439;29;20191;-69
2021/11/06 09:56:19;;;;;;;13.97;11.77;;;7.10;1.00;;;;;;4870884;29;20196;-68
2021/11/06 09:58:45;;;;;;;16.43;13.20;;;7.30;1.00;;;;;;4868276;29;21183;-68
2021/11/06 10:01:12;;;;;;;16.33;13.43;;;7.30;1.00;;;;;;4864551;29;21091;-68
2021/11/06 10:03:38;;;;;;;14.00;12.23;;;7.40;1.00;;;;;;4874630;29;20180;-68
2021/11/06 10:06:05;;;;;;;16.20;12.93;;;7.60;1.00;;;;;;4876230;29;20295;-68
2021/11/06 10:08:35;;;;;;;18.87;13.43;;;7.80;1.00;;;;;;4878968;29;20220;-68
2021/11/06 10:11:04;;;;;;;14.33;12.87;;;7.70;1.00;;;;;;4877020;29;20201;-68
2021/11/06 10:13:30;;;;;;;14.13;12.73;;;7.80;1.00;;;;;;4877511;29;20199;-68
2021/11/06 10:15:59;;;;;;;11.67;10.57;;;7.70;1.00;;;;;;4870364;29;20193;-69
2021/11/06 10:18:27;;;;;;;14.03;12.37;;;7.50;1.00;;;;;;4876400;29;20272;-68
2021/11/06 10:21:00;;;;;;;13.57;12.27;;;7.40;1.00;;;;;;4871964;29;20189;-69
2021/11/06 10:23:32;;;;;;;14.13;12.53;;;7.50;1.00;;;;;;4876556;29;20276;-68
2021/11/06 10:26:18;;;;;;;13.70;12.10;;;7.40;1.00;;;;;;4864698;29;20184;-69
2021/11/06 10:28:47;;;;;;;15.53;12.77;;;7.50;1.00;;;;;;4872405;29;20677;-68
2021/11/06 10:31:13;;;;;;;12.63;11.53;;;7.60;1.00;;;;;;4871441;29;20197;-68
2021/11/06 10:33:43;;;;;;;12.13;10.73;;;7.80;1.00;;;;;;4876357;29;20199;-68
2021/11/06 10:36:20;;;;;;;13.30;12.03;;;8.10;1.00;;;;;;4872307;29;20308;-68
2021/11/06 10:39:18;;;;;;;11.03;10.00;;;8.60;1.00;;;;;;4877366;29;20292;-69
2021/11/06 10:41:43;;;;;;;12.27;11.10;;;9.10;1.00;;;;;;4877228;29;20201;-69
2021/11/06 10:44:15;;;;;;;11.07;9.97;;;9.40;1.00;;;;;;4871462;29;20489;-69
2021/11/06 10:46:50;;;;;;;10.90;9.00;;;9.60;1.00;;;;;;4871612;29;20237;-70
2021/11/06 10:49:38;;;;;;;10.70;9.70;;;9.70;1.00;;;;;;4870145;29;20950;-66
2021/11/06 10:52:05;;;;;;;11.40;10.10;;;9.90;1.00;;;;;;4868876;29;20236;-67
2021/11/06 10:54:32;;;;;;;9.77;8.87;;;9.50;1.00;;;;;;4863944;29;20581;-68
2021/11/06 10:57:01;;;;;;;10.67;9.57;;;9.10;1.00;;;;;;4857569;29;20854;-72
2021/11/06 10:59:27;;;;;;;12.97;10.10;;;8.90;1.00;;;;;;4859514;29;21210;-70
2021/11/06 11:01:53;;;;;;;11.67;10.57;;;9.10;1.00;;;;;;4859303;29;20231;-69
2021/11/06 11:04:20;;;;;;;12.90;11.53;;;8.90;1.00;;;;;;4859492;29;20202;-70
2021/11/06 11:06:51;;;;;;;16.03;10.90;;;9.10;1.00;;;;;;4872622;29;20274;-70
2021/11/06 11:09:37;;;;;;;11.60;10.57;;;9.00;1.00;;;;;;4872380;29;20209;-71
2021/11/06 11:12:13;;;;;;;12.40;11.17;;;9.20;1.00;;;;;;4873681;29;20929;-72
2021/11/06 11:14:50;;;;;;;12.93;9.90;;;9.30;1.00;;;;;;4869594;29;20654;-72
2021/11/06 11:17:15;;;;;;;12.30;9.90;;;9.10;1.00;;;;;;4873439;29;20186;-71
2021/11/06 11:19:45;;;;;;;11.90;9.97;;;9.00;1.00;;;;;;4875444;29;20188;-72
2021/11/06 11:22:30;;;;;;;10.80;9.70;;;9.00;1.00;;;;;;4869566;29;20194;-72
2021/11/06 11:24:57;;;;;;;10.83;9.50;;;9.00;1.00;;;;;;4870261;29;20210;-72
2021/11/06 11:27:24;;;;;;;9.83;8.97;;;9.00;1.00;;;;;;4870137;29;20196;-68
2021/11/06 11:29:49;;;;;;;13.87;10.80;;;9.20;1.00;;;;;;4866017;29;20206;-68
2021/11/06 11:32:16;;;;;;;10.70;9.77;;;9.30;1.00;;;;;;4865058;29;20188;-68
2021/11/06 11:34:43;;;;;;;11.07;9.67;;;9.40;1.00;;;;;;4869791;29;20191;-68
2021/11/06 11:37:09;;;;;;;9.47;8.67;;;9.60;1.00;;;;;;4869938;29;20187;-68
2021/11/06 11:39:36;;;;;;;10.50;9.40;;;9.70;1.00;;;;;;4867436;29;20296;-69
2021/11/06 11:42:10;;;;;;;8.80;7.90;;;9.80;1.00;;;;;;4873709;29;20304;-69
2021/11/06 11:45:02;;;;;;;9.60;8.60;;;10.00;1.00;;;;;;4870834;29;20207;-67
2021/11/06 11:47:34;;;;;;;9.73;8.83;;;10.00;1.00;;;;;;4879313;29;20238;-69
2021/11/06 11:50:02;;;;;;;8.07;7.30;;;10.20;1.00;;;;;;4877775;29;20192;-69
2021/11/06 11:52:36;;;;;;;8.47;7.77;;;10.30;1.00;;;;;;4872259;29;20576;-69
2021/11/06 11:55:14;;;;;;;8.33;7.63;;;9.80;1.00;;;;;;4879437;29;20216;-68
2021/11/06 11:57:42;;;;;;;8.50;7.77;;;9.40;1.00;;;;;;4873866;29;20247;-69
2021/11/06 12:00:27;;;;;;;8.77;7.97;;;9.80;1.00;;;;;;4864226;29;20684;-70
2021/11/06 12:03:04;;;;;;;8.63;7.83;;;9.90;1.00;;;;;;4863885;29;20188;-70
2021/11/06 12:05:38;;;;;;;9.17;8.27;;;9.70;1.00;;;;;;4870364;29;20221;-70
2021/11/06 12:08:10;;;;;;;8.90;8.10;;;9.90;1.00;;;;;;4865352;29;20226;-69
2021/11/06 12:10:43;;;;;;;11.47;8.70;;;9.90;1.00;;;;;;4862838;29;20621;-69
2021/11/06 12:13:27;;;;;;;9.70;8.70;;;9.40;1.00;;;;;;4865864;29;20196;-69
2021/11/06 12:16:04;;;;;;;11.70;10.53;;;8.90;1.00;;;;;;4863968;29;20189;-68
2021/11/06 12:18:33;;;;;;;11.17;10.07;;;8.80;1.00;;;;;;4866102;29;20283;-69
2021/11/06 12:21:18;;;;;;;11.53;10.43;;;8.70;1.00;;;;;;4865854;29;20210;-68
2021/11/06 12:23:54;;;;;;;10.33;9.33;;;8.80;1.00;;;;;;4875552;29;20914;-69
2021/11/06 12:26:23;;;;;;;11.27;10.17;;;9.00;1.00;;;;;;4869930;29;20216;-69
2021/11/06 12:28:51;;;;;;;12.17;10.87;;;9.10;1.00;;;;;;4879777;29;20503;-69
2021/11/06 12:31:27;;;;;;;11.63;10.53;;;9.00;1.00;;;;;;4869847;29;20192;-68
2021/11/06 12:33:53;;;;;;;13.13;11.17;;;9.20;1.00;;;;;;4871875;29;20200;-69
2021/11/06 12:36:21;;;;;;;12.70;11.50;;;8.90;1.00;;;;;;4871591;29;20627;-69
2021/11/06 12:38:48;;;;;;;13.27;11.97;;;8.80;1.00;;;;;;4862727;29;20233;-69
2021/11/06 12:41:14;;;;;;;13.60;12.20;;;9.00;1.00;;;;;;4865888;29;20223;-68
2021/11/06 12:43:50;;;;;;;13.90;11.90;;;9.20;1.00;;;;;;4868386;29;20714;-69
2021/11/06 12:46:26;;;;;;;12.17;11.00;;;9.40;1.00;;;;;;4866220;29;20204;-68
2021/11/06 12:48:54;;;;;;;15.40;12.77;;;9.60;1.00;;;;;;4866311;29;20209;-70
2021/11/06 12:51:32;;;;;;;12.77;11.47;;;9.80;1.00;;;;;;4866931;29;20205;-68
2021/11/06 12:54:13;;;;;;;14.77;10.57;;;10.00;1.00;;;;;;4869449;29;20689;-68
2021/11/06 12:56:41;;;;;;;10.67;9.57;;;10.50;1.00;;;;;;4862379;29;20186;-69
2021/11/06 12:59:13;;;;;;;10.83;9.77;;;11.20;1.00;;;;;;4868921;29;20210;-69
2021/11/06 13:02:05;;;;;;;11.13;10.00;;;11.00;1.00;;;;;;4869103;29;20190;-69
2021/11/06 13:04:30;;;;;;;10.90;9.97;;;10.80;1.00;;;;;;4869395;29;20264;-68
2021/11/06 13:06:57;;;;;;;11.60;10.13;;;10.90;1.00;;;;;;4868096;29;20653;-69
2021/11/06 13:09:31;;;;;;;10.77;9.70;;;10.80;1.00;;;;;;4866137;29;20221;-68
2021/11/06 13:12:03;;;;;;;15.47;11.23;;;10.20;1.00;;;;;;4869331;29;20222;-69
2021/11/06 13:14:32;;;;;;;12.10;10.93;;;9.70;1.00;;;;;;4865257;29;20678;-69
2021/11/06 13:17:05;;;;;;;11.93;10.73;;;9.80;1.00;;;;;;4869688;29;20275;-68